Time;durP1;ratioP1;P1;durP2;ratioP2;P2;SDS_P1;SDS_P2;PMS_P1;PMS_P2;Temp;Humidity;BMP_temperature;BMP_pressure;BME280_temperature;BME280_humidity;BME280_pressure;Samples;Min_cycle;Max_cycle;Signal;HPM_P1;HPM_P2
2022/09/20 00:01:53;;;;;;;4.23;2.00;;;11.70;99.90;;;;;;5038892;28;20978;-82
2022/09/20 00:04:37;;;;;;;1.80;1.30;;;11.60;99.90;;;;;;5027225;28;20386;-81
2022/09/20 00:07:22;;;;;;;2.93;2.10;;;11.60;99.90;;;;;;5039419;28;20770;-81
2022/09/20 00:10:07;;;;;;;3.77;2.40;;;11.70;99.90;;;;;;5025287;28;20430;-81
2022/09/20 00:12:52;;;;;;;5.20;2.40;;;11.40;99.90;;;;;;5025209;28;20867;-81
2022/09/20 00:15:42;;;;;;;3.40;3.00;;;11.30;99.90;;;;;;5038935;28;20450;-81
2022/09/20 00:18:27;;;;;;;3.57;2.23;;;11.10;99.90;;;;;;5038723;28;20457;-81
2022/09/20 00:21:17;;;;;;;2.47;2.20;;;11.00;99.90;;;;;;5039985;28;20410;-82
2022/09/20 00:24:02;;;;;;;4.20;2.97;;;11.10;99.90;;;;;;5047774;28;20421;-81
2022/09/20 00:26:46;;;;;;;2.27;2.17;;;11.10;99.90;;;;;;5045798;28;20386;-81
2022/09/20 00:29:32;;;;;;;3.00;1.77;;;11.30;99.90;;;;;;5061639;28;20529;-81
2022/09/20 00:32:17;;;;;;;1.60;1.50;;;11.50;99.90;;;;;;5046096;28;20748;-82
2022/09/20 00:38:00;;;;;;;1.50;1.20;;;11.60;99.90;;;;;;5060681;28;20473;-81
2022/09/20 00:40:44;;;;;;;1.50;1.40;;;11.60;99.90;;;;;;5061353;28;20794;-82
2022/09/20 00:43:41;;;;;;;12.37;2.20;;;11.50;99.90;;;;;;5059847;28;20417;-82
2022/09/20 00:46:32;;;;;;;1.97;1.47;;;11.50;99.90;;;;;;5059437;28;20390;-81
2022/09/20 00:49:22;;;;;;;1.47;1.37;;;11.60;99.90;;;;;;5059568;28;20933;-80
2022/09/20 00:52:07;;;;;;;1.67;1.57;;;11.50;99.90;;;;;;5046263;28;20441;-81
2022/09/20 00:54:52;;;;;;;1.40;1.30;;;11.50;99.90;;;;;;5059717;28;20398;-82
2022/09/20 00:57:38;;;;;;;1.50;1.40;;;11.60;99.90;;;;;;5016900;28;20499;-82
2022/09/20 01:00:26;;;;;;;4.00;1.40;;;11.50;99.90;;;;;;5045477;28;20481;-81
2022/09/20 01:03:14;;;;;;;2.97;1.60;;;11.60;99.90;;;;;;5031508;28;20401;-81
2022/09/20 01:06:04;;;;;;;1.50;1.40;;;11.60;99.90;;;;;;5059597;28;20410;-82
2022/09/20 01:08:53;;;;;;;1.77;1.50;;;11.70;99.90;;;;;;5058738;28;20440;-81
2022/09/20 01:11:39;;;;;;;1.73;1.40;;;11.80;99.90;;;;;;5060506;28;20406;-81
2022/09/20 01:14:25;;;;;;;5.20;1.47;;;11.80;99.90;;;;;;5058723;28;20428;-81
2022/09/20 01:17:11;;;;;;;9.80;2.03;;;11.90;99.90;;;;;;5059660;28;20444;-81
2022/09/20 01:20:23;;;;;;;1.60;1.50;;;11.90;99.90;;;;;;5058775;28;20414;-81
2022/09/20 01:23:36;;;;;;;1.83;1.73;;;11.80;99.90;;;;;;5060182;28;20444;-81
2022/09/20 01:26:47;;;;;;;1.70;1.60;;;11.80;99.90;;;;;;5059920;28;20389;-80
2022/09/20 01:29:58;;;;;;;3.07;1.70;;;11.80;99.90;;;;;;5058999;28;20826;-80
2022/09/20 01:32:53;;;;;;;2.00;1.90;;;11.70;99.90;;;;;;5059744;28;20429;-80
2022/09/20 01:35:40;;;;;;;1.93;1.47;;;11.70;99.90;;;;;;5059848;28;20482;-80
2022/09/20 01:38:41;;;;;;;4.10;1.53;;;11.60;99.90;;;;;;5059030;28;20449;-80
2022/09/20 01:41:36;;;;;;;2.03;1.93;;;11.70;99.90;;;;;;5059441;28;20431;-80
2022/09/20 01:44:47;;;;;;;3.80;1.80;;;11.70;99.90;;;;;;5058974;28;20414;-80
2022/09/20 01:47:58;;;;;;;1.73;1.63;;;11.80;99.90;;;;;;5059887;28;20397;-80
2022/09/20 01:51:16;;;;;;;4.73;1.67;;;11.80;99.90;;;;;;5059622;28;20466;-80
2022/09/20 01:54:21;;;;;;;1.30;1.20;;;11.80;99.90;;;;;;5058900;28;20394;-81
2022/09/20 01:57:39;;;;;;;3.43;1.43;;;11.60;99.90;;;;;;5045180;28;20476;-80
2022/09/20 02:00:30;;;;;;;1.63;1.53;;;11.50;99.90;;;;;;5060734;28;20458;-81
2022/09/20 02:03:42;;;;;;;1.90;1.47;;;11.60;99.90;;;;;;5062484;28;20418;-81
2022/09/20 02:06:49;;;;;;;1.40;1.30;;;11.60;99.90;;;;;;5062857;28;20409;-80
2022/09/20 02:09:55;;;;;;;1.43;1.33;;;11.50;99.90;;;;;;5063823;28;20735;-81
2022/09/20 02:12:53;;;;;;;6.10;2.17;;;11.60;99.90;;;;;;5063171;28;20458;-81
2022/09/20 02:16:10;;;;;;;2.37;1.60;;;11.50;99.90;;;;;;5062880;28;20801;-80
2022/09/20 02:19:22;;;;;;;2.70;1.37;;;11.40;99.90;;;;;;5064962;28;20449;-80
2022/09/20 02:22:26;;;;;;;4.70;1.53;;;11.40;99.90;;;;;;5063212;28;20386;-80
2022/09/20 02:25:38;;;;;;;2.63;1.67;;;11.60;99.90;;;;;;5062572;28;20404;-80
2022/09/20 02:28:41;;;;;;;2.67;1.50;;;11.50;99.90;;;;;;5062169;28;20912;-80
2022/09/20 02:31:56;;;;;;;1.10;1.00;;;11.50;99.90;;;;;;5049084;28;20417;-79
2022/09/20 02:35:03;;;;;;;1.63;1.53;;;11.40;99.90;;;;;;5063264;28;20386;-80
2022/09/20 02:38:10;;;;;;;1.97;1.77;;;11.40;99.90;;;;;;5063253;28;20508;-80
2022/09/20 02:41:28;;;;;;;2.27;2.07;;;11.50;99.90;;;;;;5064062;28;20503;-80
2022/09/20 02:44:39;;;;;;;3.77;1.30;;;11.50;99.90;;;;;;5063711;28;20373;-80
2022/09/20 02:47:35;;;;;;;1.70;1.50;;;11.60;99.90;;;;;;5051306;28;20389;-80
2022/09/20 02:50:30;;;;;;;1.67;1.57;;;11.30;99.90;;;;;;5063243;28;20389;-80
2022/09/20 02:53:31;;;;;;;3.57;1.87;;;11.40;99.90;;;;;;5064736;28;20394;-81
2022/09/20 02:56:51;;;;;;;1.60;1.50;;;11.40;99.90;;;;;;5006653;28;20431;-80
2022/09/20 02:59:53;;;;;;;1.93;1.67;;;11.50;99.90;;;;;;5020230;28;20768;-80
2022/09/20 03:03:03;;;;;;;2.33;1.60;;;11.50;99.90;;;;;;5020666;28;20439;-80
2022/09/20 03:06:07;;;;;;;2.97;1.43;;;11.50;99.90;;;;;;5020859;28;20463;-80
2022/09/20 03:09:18;;;;;;;2.90;2.30;;;11.50;99.90;;;;;;5020281;28;20392;-80
2022/09/20 03:12:36;;;;;;;1.73;1.63;;;11.40;99.90;;;;;;5030084;28;20403;-80
2022/09/20 03:15:46;;;;;;;3.30;1.40;;;11.40;99.90;;;;;;5029400;28;20463;-82
2022/09/20 03:18:46;;;;;;;2.77;1.70;;;11.40;99.90;;;;;;5021372;28;20451;-80
2022/09/20 03:22:00;;;;;;;2.60;1.60;;;11.30;99.90;;;;;;5020171;28;20963;-80
2022/09/20 03:25:03;;;;;;;1.53;1.37;;;11.30;99.90;;;;;;5019666;28;20415;-80
2022/09/20 03:28:11;;;;;;;4.10;2.10;;;11.30;99.90;;;;;;5057561;28;20976;-80
2022/09/20 03:31:29;;;;;;;1.97;1.50;;;11.30;99.90;;;;;;5060781;28;20389;-80
2022/09/20 03:34:27;;;;;;;1.50;1.40;;;11.30;99.90;;;;;;5061502;28;20401;-80
2022/09/20 03:37:31;;;;;;;3.27;1.43;;;11.30;99.90;;;;;;5060894;28;20450;-80
2022/09/20 03:40:34;;;;;;;8.03;2.37;;;11.20;99.90;;;;;;5047603;28;20505;-80
2022/09/20 03:43:51;;;;;;;1.97;1.83;;;11.20;99.90;;;;;;5060692;28;20408;-80
2022/09/20 03:46:45;;;;;;;4.80;2.07;;;11.20;99.90;;;;;;5060079;28;20428;-80
2022/09/20 03:49:51;;;;;;;8.53;1.70;;;11.10;99.90;;;;;;5046519;28;20761;-80
2022/09/20 03:53:03;;;;;;;3.37;1.60;;;11.10;99.90;;;;;;5041740;28;20389;-79
2022/09/20 03:56:17;;;;;;;8.00;1.87;;;11.10;99.90;;;;;;5050400;28;20441;-80
2022/09/20 03:59:20;;;;;;;3.83;1.87;;;11.10;99.90;;;;;;5060117;28;20503;-80
2022/09/20 04:02:31;;;;;;;1.57;1.40;;;11.10;99.90;;;;;;5060915;28;20536;-81
2022/09/20 04:05:29;;;;;;;1.70;1.60;;;11.10;99.90;;;;;;5061856;28;20382;-81
2022/09/20 04:08:38;;;;;;;1.80;1.70;;;11.10;99.90;;;;;;5060875;28;20394;-80
2022/09/20 04:11:36;;;;;;;2.40;1.67;;;11.00;99.90;;;;;;5020631;28;20960;-81
2022/09/20 04:14:44;;;;;;;3.93;2.17;;;11.10;99.90;;;;;;5063182;28;20390;-81
2022/09/20 04:18:02;;;;;;;1.53;1.43;;;11.00;99.90;;;;;;5064046;28;20498;-79
2022/09/20 04:20:54;;;;;;;1.73;1.63;;;11.00;99.90;;;;;;5063913;28;20397;-81
2022/09/20 04:24:09;;;;;;;1.77;1.30;;;11.10;99.90;;;;;;5059706;28;20425;-81
2022/09/20 04:27:14;;;;;;;2.27;1.73;;;11.10;99.90;;;;;;5060322;28;20402;-81
2022/09/20 04:30:04;;;;;;;1.90;1.70;;;11.10;99.90;;;;;;5060804;28;20486;-81
2022/09/20 04:33:00;;;;;;;2.23;1.93;;;11.20;99.90;;;;;;5059655;28;20394;-81
2022/09/20 04:39:27;;;;;;;3.00;1.93;;;11.20;99.90;;;;;;5060513;28;20453;-81
2022/09/20 04:42:46;;;;;;;2.27;1.97;;;11.20;99.90;;;;;;5047068;28;20384;-81
2022/09/20 04:46:03;;;;;;;8.20;2.00;;;11.20;99.90;;;;;;5059648;28;20382;-81
2022/09/20 04:49:26;;;;;;;4.20;1.70;;;10.90;99.90;;;;;;5059444;28;20376;-81
2022/09/20 04:52:43;;;;;;;14.83;4.93;;;11.00;99.90;;;;;;5060471;28;20433;-81
2022/09/20 04:55:52;;;;;;;5.87;2.40;;;11.00;99.90;;;;;;5058626;28;20369;-81
2022/09/20 04:58:45;;;;;;;4.53;2.10;;;11.00;99.90;;;;;;5059493;28;20953;-81
2022/09/20 05:01:57;;;;;;;3.80;1.87;;;11.10;99.90;;;;;;5058747;28;20537;-81
2022/09/20 05:05:17;;;;;;;6.97;2.60;;;11.10;99.90;;;;;;5059303;28;20390;-81
2022/09/20 05:08:33;;;;;;;2.47;2.17;;;11.20;99.90;;;;;;5058361;28;20517;-81
2022/09/20 05:11:53;;;;;;;3.37;2.20;;;11.10;99.90;;;;;;5057976;28;20402;-81
2022/09/20 05:14:59;;;;;;;5.97;3.00;;;11.10;99.90;;;;;;5040934;28;20953;-80
2022/09/20 05:18:13;;;;;;;6.07;2.40;;;11.10;99.90;;;;;;5053003;28;20863;-80
2022/09/20 05:21:31;;;;;;;2.50;2.30;;;11.10;99.90;;;;;;5039063;28;20418;-80
2022/09/20 05:24:41;;;;;;;3.03;2.10;;;11.10;99.90;;;;;;5045825;28;20441;-80
2022/09/20 05:27:42;;;;;;;3.10;2.20;;;11.10;99.90;;;;;;5057451;28;20434;-79
2022/09/20 05:30:45;;;;;;;3.17;2.23;;;11.10;99.90;;;;;;5051966;28;20442;-79
2022/09/20 05:33:47;;;;;;;6.00;3.00;;;11.10;99.90;;;;;;5054011;28;20428;-78
2022/09/20 05:36:54;;;;;;;2.27;2.00;;;11.20;99.90;;;;;;5054456;28;20440;-78
2022/09/20 05:40:03;;;;;;;5.07;2.17;;;11.20;99.90;;;;;;5062163;28;20452;-79
2022/09/20 05:43:10;;;;;;;3.80;2.50;;;11.20;99.90;;;;;;5039712;28;20410;-78
2022/09/20 05:46:33;;;;;;;2.10;1.90;;;11.20;99.90;;;;;;5060720;28;20413;-79
2022/09/20 05:49:45;;;;;;;3.20;2.00;;;11.30;99.90;;;;;;5057165;28;20845;-78
2022/09/20 05:53:03;;;;;;;6.63;2.30;;;11.30;99.90;;;;;;5056810;28;20421;-79
2022/09/20 05:56:03;;;;;;;4.50;2.00;;;11.20;99.90;;;;;;5063631;28;20555;-79
2022/09/20 05:59:16;;;;;;;4.57;2.33;;;11.40;99.90;;;;;;5053608;28;20432;-79
2022/09/20 06:02:26;;;;;;;5.03;2.40;;;11.40;99.90;;;;;;5051771;28;20492;-79
2022/09/20 06:05:28;;;;;;;2.43;2.13;;;11.40;99.90;;;;;;5054390;28;20404;-80
2022/09/20 06:08:48;;;;;;;2.70;2.27;;;11.40;99.90;;;;;;5041839;28;20442;-80
2022/09/20 06:12:02;;;;;;;4.93;2.53;;;11.50;99.90;;;;;;5048325;28;20542;-80
2022/09/20 06:15:03;;;;;;;3.70;2.60;;;11.50;99.90;;;;;;5032868;28;20476;-81
2022/09/20 06:18:01;;;;;;;4.03;1.80;;;11.40;99.90;;;;;;5024834;28;20865;-81
2022/09/20 06:21:02;;;;;;;4.00;1.77;;;11.50;99.90;;;;;;5052669;28;20441;-81
2022/09/20 06:23:47;;;;;;;7.93;3.30;;;11.50;99.90;;;;;;5034610;28;20516;-81
2022/09/20 06:26:35;;;;;;;2.70;2.10;;;11.60;99.90;;;;;;5047353;28;20461;-81
2022/09/20 06:29:29;;;;;;;4.70;2.27;;;11.60;99.90;;;;;;5052586;28;20441;-79
2022/09/20 06:32:17;;;;;;;2.57;2.40;;;11.70;99.90;;;;;;5044857;28;20413;-81
2022/09/20 06:35:04;;;;;;;2.10;1.90;;;11.70;99.90;;;;;;5047658;28;20523;-81
2022/09/20 06:44:01;;;;;;;7.73;2.67;;;11.70;99.90;;;;;;5052344;28;20411;-80
2022/09/20 06:46:46;;;;;;;5.10;2.37;;;11.70;99.90;;;;;;5051869;28;20424;-80
2022/09/20 06:49:34;;;;;;;12.03;4.00;;;11.60;99.90;;;;;;5036626;28;20493;-82
2022/09/20 06:52:21;;;;;;;11.67;3.73;;;11.40;99.90;;;;;;5064888;28;20853;-82
2022/09/20 06:55:12;;;;;;;3.23;3.03;;;11.40;99.90;;;;;;5062920;28;22035;-81
2022/09/20 06:57:57;;;;;;;2.97;2.50;;;11.60;99.90;;;;;;5063386;28;20476;-84
2022/09/20 07:00:44;;;;;;;4.13;2.30;;;11.70;99.90;;;;;;5058212;28;20472;-82
2022/09/20 07:03:30;;;;;;;4.27;2.40;;;11.80;99.90;;;;;;5053756;28;20461;-81
2022/09/20 07:06:16;;;;;;;5.80;2.07;;;11.90;99.90;;;;;;5013003;28;20946;-81
2022/09/20 07:09:04;;;;;;;5.10;2.00;;;12.00;99.90;;;;;;5013818;28;20775;-82
2022/09/20 07:11:50;;;;;;;2.50;2.40;;;12.10;99.90;;;;;;4995230;28;20457;-81
2022/09/20 07:14:35;;;;;;;2.90;2.53;;;12.20;99.90;;;;;;5025569;28;20468;-80
2022/09/20 07:17:21;;;;;;;2.83;2.60;;;12.20;99.90;;;;;;4988716;28;20463;-81
2022/09/20 07:20:14;;;;;;;2.43;2.23;;;12.40;99.90;;;;;;4960932;28;20543;-81
2022/09/20 07:23:03;;;;;;;7.10;2.77;;;12.50;99.90;;;;;;4916013;28;20474;-80
2022/09/20 07:25:50;;;;;;;9.70;2.43;;;12.60;99.90;;;;;;4928811;29;20471;-79
2022/09/20 07:28:36;;;;;;;3.80;2.37;;;12.70;99.90;;;;;;4939483;28;20978;-82
2022/09/20 07:31:22;;;;;;;2.63;2.20;;;12.70;99.90;;;;;;4952618;28;20497;-81
2022/09/20 07:34:07;;;;;;;3.87;2.07;;;12.70;99.90;;;;;;4938183;28;20513;-79
2022/09/20 07:36:52;;;;;;;5.40;2.33;;;12.80;99.90;;;;;;4939423;28;20489;-82
2022/09/20 07:39:38;;;;;;;5.13;2.10;;;12.80;99.90;;;;;;4936144;29;20468;-81
2022/09/20 07:42:24;;;;;;;3.40;2.23;;;12.70;99.90;;;;;;4956472;28;20482;-81
2022/09/20 07:45:11;;;;;;;3.47;2.47;;;12.70;99.90;;;;;;4916048;29;20534;-82
2022/09/20 07:47:58;;;;;;;7.37;2.80;;;12.40;99.90;;;;;;4922534;28;20277;-81
2022/09/20 07:50:51;;;;;;;5.83;3.30;;;12.50;99.90;;;;;;4945272;28;20499;-81
2022/09/20 07:53:37;;;;;;;5.47;1.90;;;12.60;99.90;;;;;;4978027;28;20498;-81
2022/09/20 07:56:23;;;;;;;4.90;3.53;;;12.50;99.90;;;;;;4992152;28;20483;-81
2022/09/20 07:59:09;;;;;;;3.00;2.27;;;12.50;99.90;;;;;;4981490;28;20572;-79
2022/09/20 08:01:59;;;;;;;7.53;5.50;;;12.60;99.90;;;;;;4989192;28;20460;-80
2022/09/20 08:04:48;;;;;;;2.97;2.70;;;12.60;99.90;;;;;;4979357;28;20440;-80
2022/09/20 08:07:35;;;;;;;3.63;3.33;;;12.60;99.90;;;;;;5010598;28;20465;-81
2022/09/20 08:10:20;;;;;;;3.33;2.23;;;12.70;99.90;;;;;;5011230;28;20430;-80
2022/09/20 08:13:05;;;;;;;2.10;1.90;;;12.70;99.90;;;;;;5032943;28;20978;-81
2022/09/20 08:16:01;;;;;;;6.30;2.78;;;12.80;99.90;;;;;;5046384;28;20415;-81
2022/09/20 08:18:49;;;;;;;4.70;2.40;;;12.80;99.90;;;;;;5044030;28;20231;-81
2022/09/20 08:21:37;;;;;;;6.83;2.60;;;12.70;99.90;;;;;;5039067;28;20449;-81
2022/09/20 08:24:24;;;;;;;4.03;2.50;;;12.80;99.90;;;;;;5029026;28;20428;-81
2022/09/20 08:27:09;;;;;;;6.70;2.33;;;12.80;99.90;;;;;;4972501;28;20776;-81
2022/09/20 08:29:57;;;;;;;2.77;2.03;;;12.80;99.90;;;;;;4952148;28;20468;-80
2022/09/20 08:32:41;;;;;;;5.07;2.97;;;12.80;99.90;;;;;;4934705;29;20538;-82
2022/09/20 08:35:28;;;;;;;6.43;2.53;;;12.80;99.90;;;;;;4940201;29;20527;-82
2022/09/20 08:38:13;;;;;;;3.13;2.30;;;12.80;99.90;;;;;;4914249;28;20575;-82
2022/09/20 08:41:09;;;;;;;5.03;2.57;;;12.80;99.90;;;;;;4915993;29;20470;-82
2022/09/20 08:44:11;;;;;;;4.00;2.27;;;12.80;99.90;;;;;;4927680;29;20442;-82
2022/09/20 08:47:08;;;;;;;4.37;2.77;;;12.80;99.90;;;;;;4928526;29;20453;-82
2022/09/20 08:49:58;;;;;;;5.10;2.03;;;12.80;99.90;;;;;;4912810;29;20438;-82
2022/09/20 08:52:46;;;;;;;4.07;2.20;;;12.70;99.90;;;;;;4908681;29;20478;-81
2022/09/20 08:55:38;;;;;;;3.63;2.03;;;12.80;99.90;;;;;;4923164;29;20616;-81
2022/09/20 08:58:24;;;;;;;5.00;2.17;;;12.90;99.90;;;;;;4951647;28;21079;-82
2022/09/20 09:01:18;;;;;;;3.60;3.30;;;12.90;99.90;;;;;;4972732;28;20834;-81
2022/09/20 09:04:16;;;;;;;3.27;2.20;;;12.90;99.90;;;;;;5036955;28;20912;-81
2022/09/20 09:07:02;;;;;;;3.40;1.80;;;13.00;99.90;;;;;;5050878;28;20476;-82
2022/09/20 09:09:51;;;;;;;6.03;2.70;;;13.10;99.90;;;;;;5011307;28;21063;-81
2022/09/20 09:12:36;;;;;;;4.47;2.70;;;13.10;99.90;;;;;;4984291;28;20561;-80
2022/09/20 09:15:28;;;;;;;7.17;2.47;;;13.20;99.90;;;;;;4958101;28;20459;-79
2022/09/20 09:18:13;;;;;;;5.37;2.20;;;13.20;99.90;;;;;;4973124;28;20549;-79
2022/09/20 09:21:02;;;;;;;11.93;2.53;;;13.30;99.90;;;;;;4945426;28;20404;-80
2022/09/20 09:24:18;;;;;;;7.03;2.93;;;13.20;99.90;;;;;;4921362;29;20474;-81
2022/09/20 09:27:10;;;;;;;6.20;2.50;;;13.30;99.90;;;;;;4910125;29;20446;-80
2022/09/20 09:29:56;;;;;;;5.50;2.80;;;13.40;99.90;;;;;;4922201;29;20446;-81
2022/09/20 09:33:02;;;;;;;6.67;2.10;;;13.50;99.90;;;;;;4901806;29;20471;-81
2022/09/20 09:36:03;;;;;;;9.20;2.17;;;13.00;99.90;;;;;;4902725;29;20516;-80
2022/09/20 09:38:48;;;;;;;11.53;2.70;;;13.30;99.90;;;;;;4881711;29;20476;-80
2022/09/20 09:41:34;;;;;;;6.25;2.85;;;13.30;99.90;;;;;;4911847;29;20521;-81
2022/09/20 09:44:25;;;;;;;6.50;4.10;;;13.40;99.90;;;;;;4901672;29;20276;-82
2022/09/20 09:47:26;;;;;;;2.17;1.97;;;13.40;99.90;;;;;;4936181;28;20639;-81
2022/09/20 09:50:22;;;;;;;10.03;2.60;;;13.50;99.90;;;;;;4931653;29;20438;-81
2022/09/20 09:53:14;;;;;;;3.40;2.50;;;13.60;99.90;;;;;;4919392;29;20678;-81
2022/09/20 09:56:23;;;;;;;3.93;2.50;;;13.60;99.90;;;;;;4919149;29;20480;-83
2022/09/20 09:59:39;;;;;;;3.33;3.03;;;13.70;99.90;;;;;;4930449;29;20502;-82
2022/09/20 10:02:48;;;;;;;3.13;2.77;;;13.70;99.90;;;;;;4901588;28;20972;-81
2022/09/20 10:05:50;;;;;;;6.40;3.33;;;13.80;99.90;;;;;;4976574;28;20444;-81
2022/09/20 10:09:02;;;;;;;4.30;2.27;;;13.70;99.90;;;;;;4956683;28;20476;-82
2022/09/20 10:12:12;;;;;;;3.37;2.40;;;13.70;99.90;;;;;;4953184;28;20504;-80
2022/09/20 10:15:20;;;;;;;2.60;2.10;;;13.70;99.90;;;;;;4995864;28;20455;-80
2022/09/20 10:18:24;;;;;;;3.10;2.27;;;13.80;99.90;;;;;;5001235;28;20471;-82
2022/09/20 10:21:27;;;;;;;4.30;3.13;;;13.70;99.90;;;;;;5029877;28;20428;-82
2022/09/20 10:24:29;;;;;;;3.40;2.33;;;13.60;99.90;;;;;;5055003;28;20450;-81
2022/09/20 10:27:30;;;;;;;4.70;2.67;;;13.70;99.90;;;;;;5055001;28;20512;-81
2022/09/20 10:30:21;;;;;;;2.90;2.70;;;14.10;99.90;;;;;;5065705;28;20529;-81
2022/09/20 10:33:28;;;;;;;2.03;1.93;;;14.80;99.90;;;;;;5040027;28;20433;-81
2022/09/20 10:36:24;;;;;;;10.10;2.40;;;15.00;99.90;;;;;;5054416;28;20428;-81
2022/09/20 10:39:17;;;;;;;3.37;2.53;;;15.30;99.90;;;;;;5045340;28;20499;-83
2022/09/20 10:46:06;;;;;;;4.20;2.87;;;15.80;99.90;;;;;;5064733;28;21059;-81
2022/09/20 10:49:34;;;;;;;3.83;1.97;;;15.60;99.90;;;;;;5048213;28;20429;-83
2022/09/20 10:52:58;;;;;;;4.33;2.30;;;16.40;99.90;;;;;;5056114;28;20427;-82
2022/09/20 10:56:19;;;;;;;4.00;1.93;;;17.00;99.90;;;;;;5057074;28;20445;-81
2022/09/20 10:59:35;;;;;;;7.47;1.80;;;17.70;99.90;;;;;;5055169;28;20477;-80
2022/09/20 11:02:52;;;;;;;1.50;1.33;;;17.60;99.90;;;;;;5066058;28;20429;-81
2022/09/20 11:05:52;;;;;;;1.80;1.70;;;17.80;99.90;;;;;;5033493;28;20418;-82
2022/09/20 11:08:41;;;;;;;1.93;1.83;;;18.10;99.90;;;;;;5055507;28;20855;-80
2022/09/20 11:11:33;;;;;;;1.80;1.70;;;19.30;99.90;;;;;;5043000;28;20480;-81
2022/09/20 11:14:28;;;;;;;3.07;1.53;;;19.70;99.90;;;;;;5048603;28;20910;-81
2022/09/20 11:17:23;;;;;;;2.60;1.70;;;20.20;99.90;;;;;;5046249;28;20434;-82
2022/09/20 11:20:20;;;;;;;1.70;1.60;;;21.00;99.90;;;;;;5049926;28;20446;-82
2022/09/20 11:23:17;;;;;;;5.33;1.90;;;21.20;99.90;;;;;;5051027;28;20500;-80
2022/09/20 11:26:12;;;;;;;2.80;1.80;;;20.30;99.90;;;;;;5049616;28;20418;-80
2022/09/20 11:29:38;;;;;;;6.53;1.97;;;20.80;99.90;;;;;;5053156;28;20445;-82
2022/09/20 11:32:33;;;;;;;5.53;1.80;;;20.70;99.90;;;;;;5062726;28;20522;-81
2022/09/20 11:35:42;;;;;;;3.90;1.60;;;20.60;99.90;;;;;;5039754;28;20429;-81
2022/09/20 11:38:37;;;;;;;4.50;2.03;;;19.90;99.90;;;;;;5053172;28;20462;-80
2022/09/20 11:41:26;;;;;;;5.57;1.90;;;19.10;99.90;;;;;;5051723;28;20453;-79
2022/09/20 11:44:15;;;;;;;3.00;2.03;;;18.70;99.90;;;;;;5046469;28;20440;-81
2022/09/20 11:47:11;;;;;;;5.10;2.23;;;18.20;99.90;;;;;;5058957;28;20460;-81
2022/09/20 11:50:16;;;;;;;3.73;1.70;;;17.20;99.90;;;;;;5060803;28;20486;-80
2022/09/20 11:53:29;;;;;;;4.30;2.33;;;16.30;99.90;;;;;;5060254;28;20437;-82
2022/09/20 11:56:31;;;;;;;5.63;2.30;;;16.40;99.90;;;;;;5051624;28;20530;-82
2022/09/20 11:59:41;;;;;;;5.40;3.50;;;15.80;99.90;;;;;;5068085;28;20498;-82
2022/09/20 12:02:36;;;;;;;3.27;1.90;;;15.60;99.90;;;;;;5057628;28;20424;-82
2022/09/20 12:05:31;;;;;;;23.60;22.07;;;15.40;99.90;;;;;;5054777;28;20520;-82
2022/09/20 12:08:28;;;;;;;2.90;1.97;;;16.20;99.90;;;;;;5048153;28;21143;-82
2022/09/20 12:11:15;;;;;;;2.23;1.80;;;16.60;99.90;;;;;;5023064;28;20441;-82
2022/09/20 12:14:16;;;;;;;3.57;1.70;;;17.80;99.90;;;;;;5065501;28;20429;-82
2022/09/20 12:17:01;;;;;;;6.50;1.73;;;19.80;99.90;;;;;;5031462;28;20438;-82
2022/09/20 12:19:48;;;;;;;2.93;2.17;;;21.10;99.90;;;;;;5017007;28;20514;-82
2022/09/20 12:22:34;;;;;;;2.97;2.10;;;20.60;99.90;;;;;;4991779;28;21640;-82
2022/09/20 12:25:59;;;;;;;5.07;1.90;;;20.20;99.90;;;;;;5028844;28;20430;-82
2022/09/20 12:28:48;;;;;;;3.20;2.07;;;20.50;99.90;;;;;;4971638;28;20496;-83
2022/09/20 12:31:38;;;;;;;2.53;1.67;;;22.50;97.50;;;;;;4950818;28;20488;-82
2022/09/20 12:34:38;;;;;;;5.80;1.80;;;23.50;92.40;;;;;;4964111;28;20507;-82
2022/09/20 12:37:25;;;;;;;2.20;1.63;;;23.20;87.60;;;;;;4974556;28;20444;-82
2022/09/20 12:40:17;;;;;;;4.30;1.50;;;23.80;89.00;;;;;;4962475;28;20484;-81
2022/09/20 12:43:02;;;;;;;1.77;1.40;;;23.90;80.70;;;;;;4950162;28;20505;-83
2022/09/20 12:45:56;;;;;;;2.23;1.47;;;23.70;83.40;;;;;;4971848;28;20468;-83
2022/09/20 12:52:49;;;;;;;1.20;1.10;;;24.20;75.80;;;;;;4952219;28;20476;-83
2022/09/20 12:56:01;;;;;;;2.20;1.67;;;25.30;75.70;;;;;;4989147;28;20431;-83
2022/09/20 12:58:55;;;;;;;2.80;1.80;;;25.50;72.50;;;;;;4992580;28;20895;-83
2022/09/20 13:01:44;;;;;;;1.60;1.50;;;25.80;70.60;;;;;;5018718;28;20477;-83
2022/09/20 13:04:51;;;;;;;1.87;1.33;;;25.00;72.00;;;;;;5008645;28;20422;-82
2022/09/20 13:07:59;;;;;;;1.97;1.47;;;23.60;75.90;;;;;;4989195;28;20528;-82
2022/09/20 13:10:48;;;;;;;3.83;1.40;;;22.20;81.60;;;;;;4991939;28;20431;-83
2022/09/20 13:13:42;;;;;;;1.53;1.43;;;21.40;84.60;;;;;;4959063;28;20441;-82
2022/09/20 13:16:32;;;;;;;3.97;1.40;;;21.50;86.40;;;;;;4975178;28;20636;-82
2022/09/20 13:19:22;;;;;;;1.10;1.00;;;22.40;83.00;;;;;;4993812;28;20467;-83
2022/09/20 13:22:13;;;;;;;1.30;1.20;;;23.30;78.10;;;;;;4983114;28;20464;-82
2022/09/20 13:25:02;;;;;;;1.53;1.33;;;23.90;76.70;;;;;;4978083;28;20801;-82
2022/09/20 13:28:09;;;;;;;3.00;1.40;;;24.40;71.10;;;;;;4977634;28;20574;-82
2022/09/20 13:31:19;;;;;;;1.37;1.27;;;24.30;71.10;;;;;;4974008;28;20464;-82
2022/09/20 13:34:13;;;;;;;1.43;1.10;;;24.40;70.20;;;;;;4975139;28;20444;-83
2022/09/20 13:36:58;;;;;;;1.47;1.20;;;25.20;71.40;;;;;;4969898;28;20432;-83
2022/09/20 13:39:43;;;;;;;1.17;1.07;;;24.90;70.20;;;;;;5039245;28;20462;-83
2022/09/20 13:42:29;;;;;;;3.37;1.43;;;25.30;68.90;;;;;;5033160;28;20916;-83
2022/09/20 13:45:15;;;;;;;2.03;1.23;;;25.60;64.90;;;;;;5048169;28;20552;-82
2022/09/20 13:48:01;;;;;;;1.30;1.20;;;25.30;67.30;;;;;;5047239;28;20417;-83
2022/09/20 13:50:45;;;;;;;1.73;1.10;;;25.20;64.80;;;;;;5017680;28;20445;-79
2022/09/20 13:53:30;;;;;;;1.20;1.10;;;24.90;64.30;;;;;;5013611;28;20445;-81
2022/09/20 13:56:26;;;;;;;1.77;1.60;;;24.70;64.20;;;;;;5024857;28;20461;-81
2022/09/20 13:59:16;;;;;;;1.40;1.30;;;24.70;64.70;;;;;;5026595;28;20429;-81
2022/09/20 14:02:01;;;;;;;2.30;1.80;;;24.70;66.60;;;;;;5031280;28;20429;-82
2022/09/20 14:04:46;;;;;;;5.40;2.20;;;24.00;67.60;;;;;;5027555;28;20425;-82
2022/09/20 14:07:32;;;;;;;1.80;1.43;;;24.20;67.00;;;;;;5042242;28;20464;-82
2022/09/20 14:10:39;;;;;;;2.10;1.40;;;24.90;68.00;;;;;;5057470;28;20497;-82
2022/09/20 14:13:24;;;;;;;1.60;1.13;;;25.10;65.00;;;;;;5058350;28;20433;-82
2022/09/20 14:16:09;;;;;;;1.97;1.30;;;25.30;66.80;;;;;;5058607;28;20416;-82
2022/09/20 14:18:56;;;;;;;1.40;1.30;;;25.70;66.00;;;;;;5057860;28;20432;-82
2022/09/20 14:21:42;;;;;;;2.53;1.70;;;25.20;67.40;;;;;;5057012;28;20956;-83
2022/09/20 14:24:34;;;;;;;6.20;3.47;;;25.10;71.20;;;;;;5055592;28;20480;-82
2022/09/20 14:27:21;;;;;;;2.13;1.50;;;24.70;70.20;;;;;;5056105;28;20433;-81
2022/09/20 14:30:26;;;;;;;1.60;1.50;;;22.10;75.90;;;;;;5064908;28;20414;-82
2022/09/20 14:33:17;;;;;;;3.83;1.63;;;20.70;80.50;;;;;;5055675;28;20444;-80
2022/09/20 14:36:02;;;;;;;1.67;1.57;;;18.90;85.00;;;;;;5047373;28;20473;-80
2022/09/20 14:38:49;;;;;;;2.07;1.90;;;19.40;89.00;;;;;;5055166;28;20563;-83
2022/09/20 14:41:38;;;;;;;2.23;1.73;;;20.40;91.00;;;;;;5059164;28;20433;-83
2022/09/20 14:44:33;;;;;;;1.83;1.63;;;19.80;83.80;;;;;;5058744;28;20433;-82
2022/09/20 14:47:37;;;;;;;1.20;1.10;;;19.60;89.50;;;;;;5059455;28;20429;-82
2022/09/20 14:50:28;;;;;;;1.83;1.53;;;20.80;90.60;;;;;;5054250;28;20419;-83
2022/09/20 14:53:25;;;;;;;2.60;1.40;;;20.90;87.00;;;;;;5056157;28;20417;-82
2022/09/20 14:56:14;;;;;;;2.20;1.73;;;19.30;89.60;;;;;;5054510;28;20453;-82
2022/09/20 14:59:05;;;;;;;3.63;1.10;;;19.50;91.90;;;;;;5059980;28;20539;-82
2022/09/20 15:02:02;;;;;;;2.40;1.73;;;19.80;92.10;;;;;;5060508;28;20461;-82
2022/09/20 15:04:56;;;;;;;3.50;3.20;;;20.30;93.70;;;;;;5059695;28;20429;-83
2022/09/20 15:07:41;;;;;;;6.70;3.70;;;19.90;95.40;;;;;;5067079;28;20759;-81
2022/09/20 15:10:26;;;;;;;4.03;2.07;;;18.70;97.80;;;;;;5075053;28;20417;-82
2022/09/20 15:13:10;;;;;;;2.77;1.43;;;18.40;99.90;;;;;;5072464;28;20441;-81
2022/09/20 15:15:55;;;;;;;1.93;1.50;;;18.40;99.90;;;;;;5059833;28;20452;-82
2022/09/20 15:18:41;;;;;;;1.67;1.37;;;18.40;99.90;;;;;;5064668;28;20441;-83
2022/09/20 15:21:26;;;;;;;2.53;1.70;;;18.20;99.90;;;;;;5057967;28;20847;-81
2022/09/20 15:24:11;;;;;;;1.53;1.37;;;18.00;99.90;;;;;;5058971;28;20425;-82
2022/09/20 15:26:55;;;;;;;1.30;1.20;;;17.70;99.90;;;;;;5053234;28;20542;-83
2022/09/20 15:29:40;;;;;;;1.40;1.30;;;17.50;99.90;;;;;;5055344;28;20500;-82
2022/09/20 15:32:25;;;;;;;3.10;1.50;;;17.20;99.90;;;;;;5068290;28;20429;-82
2022/09/20 15:35:10;;;;;;;1.67;1.30;;;16.90;99.90;;;;;;5064260;28;20405;-83
2022/09/20 15:37:55;;;;;;;1.33;1.17;;;16.80;99.90;;;;;;5063259;28;20425;-79
2022/09/20 15:40:43;;;;;;;4.40;1.50;;;16.60;99.90;;;;;;5059221;28;20929;-81